createdAt,value
2023-03-17T00:00:04.797Z,.16
2023-03-17T00:00:34.046Z,.16
2023-03-17T00:01:05.789Z,.16
2023-03-17T00:01:34.277Z,0
2023-03-17T00:01:53.828Z,0
2023-03-17T00:02:26.691Z,.16
2023-03-17T00:02:57.804Z,0
2023-03-17T00:03:29.902Z,0
2023-03-17T00:04:02.397Z,0
2023-03-17T00:04:33.793Z,0
2023-03-17T00:05:06.116Z,0
2023-03-17T00:05:35.280Z,0
2023-03-17T00:05:54.199Z,0
2023-03-17T00:06:25.870Z,0
2023-03-17T00:06:42.334Z,0
2023-03-17T00:07:13.781Z,.16
2023-03-17T00:07:35.288Z,0
2023-03-17T00:08:02.480Z,0
2023-03-17T00:08:33.803Z,0
2023-03-17T00:09:05.818Z,0
2023-03-17T00:09:34.285Z,0
2023-03-17T00:09:53.806Z,0
2023-03-17T00:10:26.191Z,0
2023-03-17T00:10:42.294Z,0
2023-03-17T00:11:13.869Z,0
2023-03-17T00:11:35.260Z,0
2023-03-17T00:12:02.773Z,0
2023-03-17T00:12:34.184Z,0
2023-03-17T00:13:05.819Z,.16
2023-03-17T00:13:34.883Z,.16
2023-03-17T00:13:53.813Z,0
2023-03-17T00:14:25.863Z,0
2023-03-17T00:14:42.324Z,0
2023-03-17T00:15:15.150Z,0
2023-03-17T00:15:35.318Z,0
2023-03-17T00:16:03.862Z,0
2023-03-17T00:16:33.811Z,0
2023-03-17T00:17:05.824Z,0
2023-03-17T00:17:34.589Z,0
2023-03-17T00:17:53.808Z,0
2023-03-17T00:18:26.488Z,0
2023-03-17T00:18:57.790Z,0
2023-03-17T00:19:29.777Z,0
2023-03-17T00:20:04.300Z,0
2023-03-17T00:20:34.313Z,0
2023-03-17T00:21:05.808Z,0
2023-03-17T00:21:34.957Z,0
2023-03-17T00:21:53.841Z,0
2023-03-17T00:22:25.857Z,0
2023-03-17T00:22:42.268Z,0
2023-03-17T00:23:13.764Z,0
2023-03-17T00:23:35.267Z,0
2023-03-17T00:24:02.436Z,0
2023-03-17T00:24:33.788Z,0
2023-03-17T00:25:06.144Z,0
2023-03-17T00:25:34.262Z,.16
2023-03-17T00:25:54.136Z,.32
2023-03-17T00:26:25.911Z,.32
2023-03-17T00:26:42.280Z,.32
2023-03-17T00:27:13.833Z,.32
2023-03-17T00:27:35.284Z,.32
2023-03-17T00:28:02.802Z,.48
2023-03-17T00:28:33.813Z,.64
2023-03-17T00:29:05.809Z,.48
2023-03-17T00:29:34.323Z,.48
2023-03-17T00:29:53.857Z,.48
2023-03-17T00:30:26.789Z,.48
2023-03-17T00:30:57.854Z,.48
2023-03-17T00:31:29.890Z,.88
2023-03-17T00:32:02.340Z,1.61
2023-03-17T00:32:33.857Z,1.61
2023-03-17T00:33:05.849Z,2.09
2023-03-17T00:33:34.408Z,2.09
2023-03-17T00:33:53.868Z,2.09
2023-03-17T00:34:27.389Z,2.33
2023-03-17T00:34:57.808Z,2.09
2023-03-17T00:35:30.091Z,1.61
2023-03-17T00:36:02.439Z,2.09
2023-03-17T00:36:33.960Z,2.09
2023-03-17T00:37:05.794Z,2.33
2023-03-17T00:37:35.148Z,2.33
2023-03-17T00:37:53.855Z,2.09
2023-03-17T00:38:25.953Z,1.37
2023-03-17T00:38:42.292Z,1.37
2023-03-17T00:39:35.577Z,1.61
2023-03-17T00:40:04.106Z,.88
2023-03-17T00:40:33.858Z,.88
2023-03-17T00:41:05.831Z,.88
2023-03-17T00:41:34.312Z,.64
2023-03-17T00:41:53.806Z,.88
2023-03-17T00:42:25.863Z,.88
2023-03-17T00:42:42.273Z,.88
2023-03-17T00:43:13.830Z,1.12
2023-03-17T00:43:35.231Z,1.12
2023-03-17T00:44:02.811Z,1.12
2023-03-17T00:44:33.847Z,1.12
2023-03-17T00:45:06.288Z,1.12
2023-03-17T00:45:34.285Z,1.12
2023-03-17T00:45:54.145Z,1.12
2023-03-17T00:46:26.064Z,1.12
2023-03-17T00:46:42.537Z,1.28
2023-03-17T00:47:14.484Z,1.28
2023-03-17T00:47:35.259Z,1.61
2023-03-17T00:48:02.357Z,1.77
2023-03-17T00:48:33.822Z,1.77
2023-03-17T00:49:05.835Z,1.93
2023-03-17T00:49:34.253Z,1.77
2023-03-17T00:49:53.807Z,1.93
2023-03-17T00:50:26.892Z,1.93
2023-03-17T00:50:58.120Z,1.77
2023-03-17T00:51:29.765Z,1.77
2023-03-17T00:52:02.392Z,1.77
2023-03-17T00:52:33.805Z,1.77
2023-03-17T00:53:05.939Z,1.77
2023-03-17T00:53:35.071Z,1.77
2023-03-17T00:53:53.833Z,1.77
2023-03-17T00:54:25.821Z,1.77
2023-03-17T00:54:42.299Z,1.77
2023-03-17T00:55:14.125Z,1.77
2023-03-17T00:55:35.255Z,1.77
2023-03-17T00:56:02.424Z,1.77
2023-03-17T00:56:33.895Z,1.77
2023-03-17T00:57:05.833Z,1.93
2023-03-17T00:57:34.361Z,1.93
2023-03-17T00:57:53.801Z,1.93
2023-03-17T00:58:25.888Z,1.61
2023-03-17T00:58:42.274Z,1.61
2023-03-17T00:59:13.847Z,1.61
2023-03-17T00:59:35.257Z,1.61
2023-03-17T01:00:04.392Z,1.61
2023-03-17T01:00:34.130Z,1.77
2023-03-17T01:01:05.899Z,1.77
2023-03-17T01:01:34.812Z,2.09
2023-03-17T01:01:53.907Z,2.09
2023-03-17T01:02:25.980Z,2.09
2023-03-17T01:02:42.323Z,2.09
2023-03-17T01:03:14.492Z,2.09
2023-03-17T01:03:35.282Z,2.09
2023-03-17T01:04:02.350Z,2.49
2023-03-17T01:04:33.924Z,2.49
2023-03-17T01:05:07.055Z,2.89
2023-03-17T01:05:34.255Z,2.49
2023-03-17T01:05:54.100Z,2.09
2023-03-17T01:06:26.635Z,2.49
2023-03-17T01:06:57.754Z,2.49
2023-03-17T01:07:29.776Z,2.73
2023-03-17T01:08:02.297Z,2.73
2023-03-17T01:08:33.841Z,2.57
2023-03-17T01:09:05.804Z,2.57
2023-03-17T01:09:34.968Z,2.57
2023-03-17T01:09:53.875Z,2.33
2023-03-17T01:10:26.219Z,2.33
2023-03-17T01:10:42.339Z,2.33
2023-03-17T01:11:13.816Z,2.09
2023-03-17T01:11:35.361Z,2.09
2023-03-17T01:12:02.377Z,1.93
2023-03-17T01:12:33.932Z,1.93
2023-03-17T01:13:05.859Z,1.93
2023-03-17T01:13:34.291Z,1.93
2023-03-17T01:13:53.820Z,1.93
2023-03-17T01:14:25.860Z,1.93
2023-03-17T01:14:42.296Z,2.09
2023-03-17T01:15:14.321Z,2.09
2023-03-17T01:15:35.792Z,2.09
2023-03-17T01:16:03.946Z,2.33
2023-03-17T01:16:33.904Z,2.09
2023-03-17T01:17:05.795Z,1.93
2023-03-17T01:17:34.652Z,1.45
2023-03-17T01:17:53.807Z,1.12
2023-03-17T01:18:25.914Z,1.12
2023-03-17T01:18:42.363Z,1.61
2023-03-17T01:19:14.550Z,2.33
2023-03-17T01:19:35.277Z,2.33
2023-03-17T01:20:04.261Z,2.01
2023-03-17T01:20:33.956Z,2.01
2023-03-17T01:21:05.815Z,2.33
2023-03-17T01:21:34.283Z,1.77
2023-03-17T01:21:53.870Z,1.44
2023-03-17T01:22:26.584Z,1.44
2023-03-17T01:22:57.999Z,1.28
2023-03-17T01:23:29.776Z,.88
2023-03-17T01:24:02.298Z,.64
2023-03-17T01:24:34.361Z,.64
2023-03-17T01:25:06.094Z,.64
2023-03-17T01:25:35.175Z,.64
2023-03-17T01:25:54.119Z,.48
2023-03-17T01:26:26.130Z,.32
2023-03-17T01:26:42.299Z,.32
2023-03-17T01:27:13.852Z,.32
2023-03-17T01:27:35.461Z,.32
2023-03-17T01:28:02.393Z,.32
2023-03-17T01:28:33.917Z,.32
2023-03-17T01:29:05.817Z,.32
2023-03-17T01:29:34.258Z,.32
2023-03-17T01:29:53.849Z,.16
2023-03-17T01:30:26.524Z,0
2023-03-17T01:30:42.316Z,0
2023-03-17T01:31:13.955Z,.16
2023-03-17T01:31:35.281Z,.16
2023-03-17T01:32:02.964Z,.16
2023-03-17T01:32:34.149Z,.16
2023-03-17T01:33:05.882Z,.32
2023-03-17T01:33:34.270Z,.32
2023-03-17T01:33:53.854Z,.16
2023-03-17T01:34:25.901Z,.16
2023-03-17T01:34:42.325Z,.16
2023-03-17T01:35:16.333Z,.16
2023-03-17T01:35:35.304Z,.32
2023-03-17T01:36:02.382Z,.32
2023-03-17T01:36:33.898Z,.16
2023-03-17T01:37:05.801Z,.16
2023-03-17T01:37:34.260Z,.16
2023-03-17T01:37:53.849Z,.16
2023-03-17T01:38:26.613Z,0
2023-03-17T01:38:57.835Z,0
2023-03-17T01:39:29.769Z,.32
2023-03-17T01:40:04.253Z,0
2023-03-17T01:40:34.669Z,0
2023-03-17T01:41:05.999Z,0
2023-03-17T01:41:35.228Z,0
2023-03-17T01:41:54.030Z,0
2023-03-17T01:42:26.454Z,0
2023-03-17T01:42:42.315Z,0
2023-03-17T01:43:14.721Z,0
2023-03-17T01:43:35.365Z,0
2023-03-17T01:44:02.426Z,0
2023-03-17T01:44:34.587Z,0
2023-03-17T01:45:06.664Z,0
2023-03-17T01:45:34.483Z,0
2023-03-17T01:45:54.662Z,0
2023-03-17T01:46:26.037Z,0
2023-03-17T01:46:42.398Z,0
2023-03-17T01:47:13.857Z,0
2023-03-17T01:47:35.382Z,0
2023-03-17T01:48:03.188Z,0
2023-03-17T01:48:34.532Z,0
2023-03-17T01:49:06.008Z,0
2023-03-17T01:49:34.314Z,0
2023-03-17T01:49:53.973Z,0
2023-03-17T01:50:26.218Z,0
2023-03-17T01:50:42.652Z,0
2023-03-17T01:51:14.945Z,0
2023-03-17T01:51:35.445Z,0
2023-03-17T01:52:02.332Z,0
2023-03-17T01:52:33.936Z,0
2023-03-17T01:53:05.884Z,0
2023-03-17T01:53:34.336Z,0
2023-03-17T01:53:53.864Z,0
2023-03-17T01:54:26.628Z,0
2023-03-17T01:54:57.828Z,0
2023-03-17T01:55:30.116Z,0
2023-03-17T01:56:02.410Z,0
2023-03-17T01:56:34.104Z,0
2023-03-17T01:57:05.867Z,0
2023-03-17T01:57:35.024Z,0
2023-03-17T01:57:53.919Z,0
2023-03-17T01:58:25.891Z,0
2023-03-17T01:58:42.332Z,0
2023-03-17T01:59:13.873Z,0
2023-03-17T01:59:35.261Z,0
2023-03-17T02:00:04.851Z,0
2023-03-17T02:00:33.974Z,0
2023-03-17T02:01:05.888Z,0
2023-03-17T02:01:34.576Z,0
2023-03-17T02:01:53.938Z,0
2023-03-17T02:02:25.912Z,0
2023-03-17T02:02:42.302Z,0
2023-03-17T02:03:13.901Z,0
2023-03-17T02:03:35.906Z,0
2023-03-17T02:04:03.078Z,0
2023-03-17T02:04:33.983Z,0
2023-03-17T02:05:06.212Z,0
2023-03-17T02:05:34.290Z,0
2023-03-17T02:05:54.163Z,0
2023-03-17T02:06:25.917Z,0
2023-03-17T02:06:56.878Z,0
2023-03-17T02:07:14.660Z,0
2023-03-17T02:07:35.355Z,0
2023-03-17T02:08:02.491Z,0
2023-03-17T02:08:33.956Z,0
2023-03-17T02:09:05.841Z,0
2023-03-17T02:09:34.274Z,0
2023-03-17T02:09:53.882Z,0
2023-03-17T02:10:27.068Z,0
2023-03-17T02:10:57.834Z,0
2023-03-17T02:11:29.794Z,0
2023-03-17T02:12:02.381Z,0
2023-03-17T02:12:34.022Z,0
2023-03-17T02:13:05.952Z,0
2023-03-17T02:13:35.198Z,0
2023-03-17T02:13:54.191Z,0
2023-03-17T02:14:25.910Z,0
2023-03-17T02:14:42.334Z,0
2023-03-17T02:15:14.343Z,0
2023-03-17T02:15:35.378Z,0
2023-03-17T02:16:03.819Z,0
2023-03-17T02:16:34.277Z,0
2023-03-17T02:17:05.848Z,0
2023-03-17T02:17:34.492Z,0
2023-03-17T02:17:53.829Z,0
2023-03-17T02:18:25.920Z,0
2023-03-17T02:18:42.302Z,0
2023-03-17T02:19:13.866Z,0
2023-03-17T02:19:35.328Z,0
2023-03-17T02:20:04.409Z,0
2023-03-17T02:20:33.962Z,0
2023-03-17T02:21:05.827Z,0
2023-03-17T02:21:34.322Z,0
2023-03-17T02:21:53.889Z,0
2023-03-17T02:22:25.896Z,0
2023-03-17T02:22:42.386Z,0
2023-03-17T02:23:14.609Z,0
2023-03-17T02:23:35.257Z,0
2023-03-17T02:24:02.441Z,0
2023-03-17T02:24:33.982Z,0
2023-03-17T02:25:06.157Z,0
2023-03-17T02:25:34.316Z,0
2023-03-17T02:25:54.123Z,0
2023-03-17T02:26:26.773Z,0
2023-03-17T02:26:57.789Z,0
2023-03-17T02:27:29.814Z,0
2023-03-17T02:28:02.378Z,0
2023-03-17T02:28:34.033Z,0
2023-03-17T02:29:05.940Z,0
2023-03-17T02:29:35.461Z,0
2023-03-17T02:29:53.867Z,0
2023-03-17T02:30:26.380Z,0
2023-03-17T02:30:42.381Z,0
2023-03-17T02:31:13.936Z,0
2023-03-17T02:31:35.350Z,0
2023-03-17T02:32:02.426Z,0
2023-03-17T02:32:34.359Z,0
2023-03-17T02:33:06.004Z,0
2023-03-17T02:33:34.856Z,0
2023-03-17T02:33:53.844Z,0
2023-03-17T02:34:25.789Z,0
2023-03-17T02:34:42.552Z,0
2023-03-17T02:35:14.267Z,0
2023-03-17T02:35:35.237Z,0
2023-03-17T02:36:03.128Z,0
2023-03-17T02:36:34.065Z,0
2023-03-17T02:37:05.812Z,0
2023-03-17T02:37:34.943Z,0
2023-03-17T02:37:53.825Z,0
2023-03-17T02:38:25.869Z,0
2023-03-17T02:38:57.788Z,0
2023-03-17T02:39:29.788Z,0
2023-03-17T02:40:04.181Z,0
2023-03-17T02:40:33.923Z,0
2023-03-17T02:41:05.796Z,0
2023-03-17T02:41:34.240Z,0
2023-03-17T02:41:53.817Z,0
2023-03-17T02:42:25.782Z,0
2023-03-17T02:42:42.289Z,0
2023-03-17T02:43:14.677Z,0
2023-03-17T02:43:35.244Z,0
2023-03-17T02:44:02.202Z,0
2023-03-17T02:44:33.890Z,0
2023-03-17T02:45:06.763Z,0
2023-03-17T02:45:34.327Z,0
2023-03-17T02:45:54.316Z,0
2023-03-17T02:46:26.783Z,0
2023-03-17T02:46:57.807Z,0
2023-03-17T02:47:29.770Z,0
2023-03-17T02:48:02.312Z,0
2023-03-17T02:48:33.917Z,0
2023-03-17T02:49:05.822Z,0
2023-03-17T02:49:35.221Z,0
2023-03-17T02:49:53.870Z,0
2023-03-17T02:50:26.135Z,0
2023-03-17T02:50:43.042Z,0
2023-03-17T02:51:13.839Z,0
2023-03-17T02:51:35.212Z,0
2023-03-17T02:52:02.354Z,0
2023-03-17T02:52:34.313Z,0
2023-03-17T02:53:05.817Z,0
2023-03-17T02:53:34.243Z,0
2023-03-17T02:53:53.809Z,0
2023-03-17T02:54:25.882Z,0
2023-03-17T02:54:57.804Z,0
2023-03-17T02:55:30.635Z,0
2023-03-17T02:56:03.756Z,0
2023-03-17T02:56:34.008Z,0
2023-03-17T02:57:05.801Z,0
2023-03-17T02:57:34.362Z,0
2023-03-17T02:57:53.871Z,0
2023-03-17T02:58:25.802Z,0
2023-03-17T02:58:42.270Z,0
2023-03-17T02:59:14.526Z,0
2023-03-17T02:59:35.236Z,0
2023-03-17T03:00:04.472Z,0
2023-03-17T03:00:33.985Z,0
2023-03-17T03:01:05.928Z,0
2023-03-17T03:01:34.438Z,0
2023-03-17T03:01:53.870Z,0
2023-03-17T03:02:27.736Z,0
2023-03-17T03:02:57.969Z,0
2023-03-17T03:03:29.795Z,0
2023-03-17T03:04:02.364Z,0
2023-03-17T03:04:33.926Z,0
2023-03-17T03:05:06.255Z,0
2023-03-17T03:05:34.930Z,0
2023-03-17T03:05:54.101Z,0
2023-03-17T03:06:25.964Z,0
2023-03-17T03:06:42.392Z,0
2023-03-17T03:07:13.917Z,0
2023-03-17T03:07:35.261Z,0
2023-03-17T03:08:02.260Z,0
2023-03-17T03:08:33.946Z,0
2023-03-17T03:09:05.788Z,0
2023-03-17T03:09:34.264Z,0
2023-03-17T03:09:53.891Z,0
2023-03-17T03:10:26.108Z,0
2023-03-17T03:10:57.796Z,0
2023-03-17T03:11:29.833Z,0
2023-03-17T03:12:03.066Z,0
2023-03-17T03:12:33.944Z,0
2023-03-17T03:13:05.798Z,0
2023-03-17T03:13:34.264Z,0
2023-03-17T03:13:53.823Z,0
2023-03-17T03:14:25.810Z,0
2023-03-17T03:14:42.314Z,0
2023-03-17T03:15:15.179Z,0
2023-03-17T03:15:35.820Z,0
2023-03-17T03:16:03.985Z,0
2023-03-17T03:16:33.929Z,0
2023-03-17T03:17:05.788Z,0
2023-03-17T03:17:34.272Z,0
2023-03-17T03:17:53.870Z,0
2023-03-17T03:18:27.410Z,0
2023-03-17T03:18:57.834Z,0
2023-03-17T03:19:29.886Z,0
2023-03-17T03:20:04.264Z,0
2023-03-17T03:20:34.005Z,0
2023-03-17T03:21:05.857Z,.16
2023-03-17T03:21:35.046Z,.32
2023-03-17T03:21:53.802Z,.32
2023-03-17T03:22:25.820Z,.32
2023-03-17T03:22:42.301Z,.32
2023-03-17T03:23:13.868Z,.32
2023-03-17T03:23:35.484Z,.32
2023-03-17T03:24:01.867Z,.32
2023-03-17T03:24:33.894Z,.32
2023-03-17T03:25:06.226Z,.32
2023-03-17T03:25:34.638Z,.32
2023-03-17T03:25:54.154Z,.32
2023-03-17T03:26:26.212Z,.32
2023-03-17T03:26:57.805Z,.32
2023-03-17T03:27:29.826Z,.16
2023-03-17T03:28:03.007Z,.16
2023-03-17T03:28:33.937Z,.16
2023-03-17T03:29:05.821Z,.16
2023-03-17T03:29:34.468Z,0
2023-03-17T03:29:53.862Z,0
2023-03-17T03:30:26.399Z,0
2023-03-17T03:30:42.556Z,0
2023-03-17T03:31:14.692Z,0
2023-03-17T03:31:35.235Z,0
2023-03-17T03:32:01.854Z,0
2023-03-17T03:32:33.944Z,0
2023-03-17T03:33:05.865Z,0
2023-03-17T03:33:34.245Z,0
2023-03-17T03:33:53.874Z,0
2023-03-17T03:34:26.675Z,0
2023-03-17T03:34:57.849Z,0
2023-03-17T03:35:30.148Z,0
2023-03-17T03:36:02.023Z,0
2023-03-17T03:36:34.034Z,.16
2023-03-17T03:37:05.821Z,.32
2023-03-17T03:37:34.237Z,.16
2023-03-17T03:37:53.844Z,0
2023-03-17T03:38:25.789Z,.16
2023-03-17T03:38:42.314Z,.32
2023-03-17T03:39:14.615Z,.32
2023-03-17T03:39:35.219Z,.32
2023-03-17T03:40:04.184Z,.32
2023-03-17T03:40:33.896Z,.32
2023-03-17T03:41:05.831Z,.32
2023-03-17T03:41:34.237Z,.16
2023-03-17T03:41:53.904Z,.16
2023-03-17T03:42:25.799Z,0
2023-03-17T03:42:57.987Z,0
2023-03-17T03:43:29.811Z,0
2023-03-17T03:44:01.873Z,0
2023-03-17T03:44:33.954Z,0
2023-03-17T03:45:06.484Z,0
2023-03-17T03:45:34.312Z,0
2023-03-17T03:45:54.114Z,0
2023-03-17T03:46:26.838Z,0
2023-03-17T03:46:57.800Z,0
2023-03-17T03:47:29.783Z,0
2023-03-17T03:48:01.829Z,0
2023-03-17T03:48:33.914Z,0
2023-03-17T03:49:05.799Z,0
2023-03-17T03:49:34.925Z,0
2023-03-17T03:49:53.930Z,0
2023-03-17T03:50:26.089Z,0
2023-03-17T03:50:57.857Z,0
2023-03-17T03:51:29.878Z,0
2023-03-17T03:52:01.980Z,0
2023-03-17T03:52:33.930Z,0
2023-03-17T03:53:05.836Z,0
2023-03-17T03:53:34.300Z,0
2023-03-17T03:53:53.885Z,0
2023-03-17T03:54:25.805Z,0
2023-03-17T03:54:42.304Z,0
2023-03-17T03:55:14.193Z,0
2023-03-17T03:55:35.227Z,0
2023-03-17T03:56:03.189Z,0
2023-03-17T03:56:33.941Z,0
2023-03-17T03:57:05.825Z,0
2023-03-17T03:57:34.538Z,0
2023-03-17T03:57:53.820Z,0
2023-03-17T03:58:25.846Z,0
2023-03-17T03:58:57.824Z,0
2023-03-17T03:59:29.818Z,0
2023-03-17T04:00:04.544Z,0
2023-03-17T04:00:33.982Z,0
2023-03-17T04:01:05.858Z,0
2023-03-17T04:01:34.288Z,0
2023-03-17T04:01:54.175Z,0
2023-03-17T04:02:26.809Z,0
2023-03-17T04:02:57.925Z,0
2023-03-17T04:03:29.785Z,0
2023-03-17T04:04:01.923Z,0
2023-03-17T04:04:33.945Z,0
2023-03-17T04:05:06.281Z,0
2023-03-17T04:05:35.235Z,0
2023-03-17T04:05:54.082Z,0
2023-03-17T04:06:25.808Z,0
2023-03-17T04:06:57.812Z,0
2023-03-17T04:07:29.804Z,0
2023-03-17T04:08:01.865Z,0
2023-03-17T04:08:33.925Z,0
2023-03-17T04:09:05.857Z,0
2023-03-17T04:09:34.241Z,0
2023-03-17T04:09:53.867Z,0
2023-03-17T04:10:26.218Z,0
2023-03-17T04:10:57.845Z,0
2023-03-17T04:11:29.838Z,0
2023-03-17T04:12:03.173Z,0
2023-03-17T04:12:33.939Z,0
2023-03-17T04:13:05.800Z,0
2023-03-17T04:13:34.294Z,0
2023-03-17T04:13:53.849Z,0
2023-03-17T04:14:25.839Z,0
2023-03-17T04:14:57.781Z,0
2023-03-17T04:15:30.345Z,0
2023-03-17T04:16:03.698Z,0
2023-03-17T04:16:34.013Z,0
2023-03-17T04:17:05.825Z,0
2023-03-17T04:17:34.237Z,0
2023-03-17T04:17:53.856Z,0
2023-03-17T04:18:26.636Z,0
2023-03-17T04:18:58.006Z,0
2023-03-17T04:19:29.780Z,0
2023-03-17T04:20:03.921Z,0
2023-03-17T04:20:33.879Z,0
2023-03-17T04:21:05.874Z,0
2023-03-17T04:21:36.043Z,0
2023-03-17T04:21:54.828Z,0
2023-03-17T04:22:25.849Z,0
2023-03-17T04:22:57.937Z,0
2023-03-17T04:23:29.807Z,0
2023-03-17T04:24:01.860Z,0
2023-03-17T04:24:33.989Z,0
2023-03-17T04:25:06.130Z,0
2023-03-17T04:25:34.269Z,0
2023-03-17T04:25:54.110Z,0
2023-03-17T04:26:25.800Z,0
2023-03-17T04:26:57.795Z,0
2023-03-17T04:27:29.814Z,0
2023-03-17T04:28:03.024Z,0
2023-03-17T04:28:34.174Z,0
2023-03-17T04:29:05.824Z,0
2023-03-17T04:29:34.272Z,0
2023-03-17T04:29:53.853Z,0
2023-03-17T04:30:26.418Z,0
2023-03-17T04:30:58.007Z,0
2023-03-17T04:31:29.921Z,0
2023-03-17T04:32:01.875Z,0
2023-03-17T04:32:34.071Z,0
2023-03-17T04:33:05.968Z,0
2023-03-17T04:33:34.370Z,0
2023-03-17T04:33:53.833Z,0
2023-03-17T04:34:26.534Z,0
2023-03-17T04:34:57.823Z,0
2023-03-17T04:35:30.083Z,0
2023-03-17T04:36:01.898Z,0
2023-03-17T04:36:34.201Z,0
2023-03-17T04:37:05.838Z,0
2023-03-17T04:37:34.711Z,0
2023-03-17T04:37:53.917Z,0
2023-03-17T04:38:25.806Z,0
2023-03-17T04:38:58.150Z,0
2023-03-17T04:39:29.846Z,0
2023-03-17T04:40:03.819Z,0
2023-03-17T04:40:34.410Z,0
2023-03-17T04:41:05.829Z,0
2023-03-17T04:41:34.553Z,0
2023-03-17T04:41:53.858Z,0
2023-03-17T04:42:25.832Z,0
2023-03-17T04:42:57.841Z,0
2023-03-17T04:43:29.824Z,0
2023-03-17T04:44:01.825Z,0
2023-03-17T04:44:33.905Z,0
2023-03-17T04:45:06.445Z,0
2023-03-17T04:45:34.382Z,0
2023-03-17T04:45:54.210Z,0
2023-03-17T04:46:26.670Z,0
2023-03-17T04:46:57.792Z,0
2023-03-17T04:47:29.818Z,0
2023-03-17T04:48:01.920Z,0
2023-03-17T04:48:33.949Z,0
2023-03-17T04:49:05.799Z,0
2023-03-17T04:49:36.105Z,0
2023-03-17T04:49:53.854Z,0
2023-03-17T04:50:26.184Z,0
2023-03-17T04:50:57.835Z,0
2023-03-17T04:51:29.838Z,0
2023-03-17T04:52:01.829Z,0
2023-03-17T04:52:33.908Z,0
2023-03-17T04:53:05.836Z,0
2023-03-17T04:53:34.324Z,0
2023-03-17T04:53:54.001Z,0
2023-03-17T04:54:25.889Z,0
2023-03-17T04:54:57.844Z,0
2023-03-17T04:55:30.081Z,0
2023-03-17T04:56:03.261Z,0
2023-03-17T04:56:34.380Z,0
2023-03-17T04:57:05.853Z,0
2023-03-17T04:57:34.281Z,0
2023-03-17T04:57:53.879Z,0
2023-03-17T04:58:30.760Z,0
2023-03-17T04:58:57.824Z,0
2023-03-17T04:59:29.812Z,0
2023-03-17T05:00:04.305Z,0
2023-03-17T05:00:33.962Z,0
2023-03-17T05:01:05.950Z,0
2023-03-17T05:01:34.371Z,0
2023-03-17T05:01:53.877Z,0
2023-03-17T05:02:26.182Z,0
2023-03-17T05:02:57.341Z,0
2023-03-17T05:03:29.373Z,0
2023-03-17T05:04:01.352Z,0
2023-03-17T05:04:33.856Z,0
2023-03-17T05:05:05.753Z,0
2023-03-17T05:05:34.640Z,0
2023-03-17T05:05:53.619Z,0
2023-03-17T05:06:27.036Z,0
2023-03-17T05:06:58.832Z,0
2023-03-17T05:07:32.838Z,0
2023-03-17T05:08:02.334Z,0
2023-03-17T05:08:33.880Z,0
2023-03-17T05:09:05.845Z,0
2023-03-17T05:09:34.448Z,0
2023-03-17T05:09:53.873Z,0
2023-03-17T05:10:26.206Z,0
2023-03-17T05:10:57.955Z,0
2023-03-17T05:11:29.837Z,0
2023-03-17T05:12:02.594Z,0
2023-03-17T05:12:34.346Z,0
2023-03-17T05:13:05.893Z,0
2023-03-17T05:13:34.318Z,0
2023-03-17T05:13:53.894Z,0
2023-03-17T05:14:25.802Z,0
2023-03-17T05:14:57.828Z,0
2023-03-17T05:15:30.450Z,0
2023-03-17T05:16:03.597Z,0
2023-03-17T05:16:34.362Z,0
2023-03-17T05:17:05.834Z,0
2023-03-17T05:17:34.314Z,0
2023-03-17T05:17:53.879Z,0
2023-03-17T05:18:27.478Z,0
2023-03-17T05:18:57.893Z,0
2023-03-17T05:19:29.875Z,0
2023-03-17T05:20:03.993Z,0
2023-03-17T05:20:34.569Z,0
2023-03-17T05:21:05.862Z,0
2023-03-17T05:21:34.937Z,0
2023-03-17T05:21:53.860Z,0
2023-03-17T05:22:25.855Z,0
2023-03-17T05:22:57.832Z,0
2023-03-17T05:23:29.852Z,0
2023-03-17T05:24:02.338Z,0
2023-03-17T05:24:33.946Z,0
2023-03-17T05:25:06.150Z,0
2023-03-17T05:25:34.330Z,0
2023-03-17T05:25:54.122Z,0
2023-03-17T05:26:25.876Z,0
2023-03-17T05:26:57.870Z,0
2023-03-17T05:27:29.818Z,0
2023-03-17T05:28:02.596Z,0
2023-03-17T05:28:33.964Z,0
2023-03-17T05:29:05.880Z,0
2023-03-17T05:29:34.324Z,0
2023-03-17T05:29:53.845Z,0
2023-03-17T05:30:26.401Z,0
2023-03-17T05:30:58.181Z,0
2023-03-17T05:31:29.876Z,0
2023-03-17T05:32:02.392Z,0
2023-03-17T05:32:33.928Z,0
2023-03-17T05:33:05.903Z,0
2023-03-17T05:33:34.485Z,0
2023-03-17T05:33:53.852Z,0
2023-03-17T05:34:26.570Z,0
2023-03-17T05:34:57.877Z,0
2023-03-17T05:35:30.255Z,0
2023-03-17T05:36:02.429Z,0
2023-03-17T05:36:33.970Z,0
2023-03-17T05:37:05.873Z,0
2023-03-17T05:37:35.263Z,0
2023-03-17T05:37:53.889Z,0
2023-03-17T05:38:25.876Z,0
2023-03-17T05:38:57.985Z,0
2023-03-17T05:39:29.851Z,0
2023-03-17T05:40:04.050Z,0
2023-03-17T05:40:34.076Z,0
2023-03-17T05:41:05.855Z,0
2023-03-17T05:41:34.469Z,0
2023-03-17T05:41:53.987Z,0
2023-03-17T05:42:26.025Z,0
2023-03-17T05:42:58.028Z,0
2023-03-17T05:43:29.949Z,0
2023-03-17T05:44:02.789Z,0
2023-03-17T05:44:34.031Z,0
2023-03-17T05:45:06.607Z,0
2023-03-17T05:45:34.386Z,0
2023-03-17T05:45:54.257Z,0
2023-03-17T05:46:26.039Z,0
2023-03-17T05:46:57.981Z,0
2023-03-17T05:47:29.949Z,0
2023-03-17T05:48:02.508Z,0
2023-03-17T05:48:34.014Z,0
2023-03-17T05:49:06.017Z,0
2023-03-17T05:49:34.348Z,0
2023-03-17T05:49:54.003Z,0
2023-03-17T05:50:27.198Z,0
2023-03-17T05:50:57.922Z,0
2023-03-17T05:51:29.983Z,0
2023-03-17T05:52:02.508Z,0
2023-03-17T05:52:34.517Z,0
2023-03-17T05:53:05.964Z,0
2023-03-17T05:53:35.228Z,0
2023-03-17T05:53:53.995Z,0
2023-03-17T05:54:26.030Z,0
2023-03-17T05:54:58.064Z,0
2023-03-17T05:55:30.242Z,0
2023-03-17T05:56:02.414Z,0
2023-03-17T05:56:34.152Z,0
2023-03-17T05:57:05.978Z,0
2023-03-17T05:57:34.425Z,0
2023-03-17T05:57:53.989Z,0
2023-03-17T05:58:25.953Z,0
2023-03-17T05:58:58.024Z,0
2023-03-17T05:59:29.992Z,0
2023-03-17T06:00:04.513Z,0
2023-03-17T06:00:34.090Z,0
2023-03-17T06:01:05.990Z,0
2023-03-17T06:01:34.371Z,0
2023-03-17T06:01:54.065Z,0
2023-03-17T06:02:26.098Z,0
2023-03-17T06:02:57.963Z,0
2023-03-17T06:03:30.008Z,0
2023-03-17T06:04:02.547Z,0
2023-03-17T06:04:34.129Z,0
2023-03-17T06:05:06.462Z,0
2023-03-17T06:05:34.521Z,0
2023-03-17T06:05:54.308Z,0
2023-03-17T06:06:26.805Z,0
2023-03-17T06:06:58.000Z,0
2023-03-17T06:07:41.345Z,0
2023-03-17T06:08:02.492Z,0
2023-03-17T06:08:34.048Z,0
2023-03-17T06:09:06.010Z,0
2023-03-17T06:09:35.208Z,0
2023-03-17T06:09:54.004Z,0
2023-03-17T06:10:26.438Z,0
2023-03-17T06:10:57.958Z,0
2023-03-17T06:11:29.917Z,0
2023-03-17T06:12:02.402Z,0
2023-03-17T06:12:34.362Z,0
2023-03-17T06:13:06.016Z,0
2023-03-17T06:13:34.320Z,0
2023-03-17T06:13:53.999Z,0
2023-03-17T06:14:27.212Z,0
2023-03-17T06:14:58.014Z,0
2023-03-17T06:15:31.021Z,0
2023-03-17T06:16:03.960Z,0
2023-03-17T06:16:34.098Z,0
2023-03-17T06:17:06.051Z,0
2023-03-17T06:17:34.398Z,0
2023-03-17T06:17:54.020Z,0
2023-03-17T06:18:26.059Z,0
2023-03-17T06:18:57.982Z,0
2023-03-17T06:19:29.991Z,0
2023-03-17T06:20:03.920Z,0
2023-03-17T06:20:34.043Z,0
2023-03-17T06:21:06.019Z,0
2023-03-17T06:21:34.574Z,0
2023-03-17T06:21:54.037Z,0
2023-03-17T06:22:26.898Z,0
2023-03-17T06:23:04.352Z,0
2023-03-17T06:23:29.979Z,0
2023-03-17T06:24:02.466Z,0
2023-03-17T06:24:34.168Z,0
2023-03-17T06:25:06.346Z,0
2023-03-17T06:25:35.064Z,0
2023-03-17T06:25:54.270Z,0
2023-03-17T06:26:26.031Z,0
2023-03-17T06:26:57.967Z,0
2023-03-17T06:27:29.987Z,0
2023-03-17T06:28:02.908Z,0
2023-03-17T06:28:34.014Z,0
2023-03-17T06:29:06.008Z,0
2023-03-17T06:29:34.445Z,0
2023-03-17T06:29:54.023Z,0
2023-03-17T06:30:26.625Z,0
2023-03-17T06:30:58.282Z,0
2023-03-17T06:31:30.133Z,0
2023-03-17T06:32:18.878Z,0
2023-03-17T06:32:34.131Z,0
2023-03-17T06:33:06.080Z,0
2023-03-17T06:33:34.425Z,0
2023-03-17T06:33:54.008Z,0
2023-03-17T06:34:26.055Z,0
2023-03-17T06:34:58.049Z,0
2023-03-17T06:35:30.770Z,0
2023-03-17T06:36:02.500Z,0
2023-03-17T06:36:34.031Z,0
2023-03-17T06:37:05.985Z,0
2023-03-17T06:37:34.725Z,0
2023-03-17T06:37:54.034Z,0
2023-03-17T06:38:26.054Z,0
2023-03-17T06:38:58.027Z,0
2023-03-17T06:39:30.005Z,0
2023-03-17T06:40:03.856Z,0
2023-03-17T06:40:34.482Z,0
2023-03-17T06:41:06.035Z,0
2023-03-17T06:41:34.369Z,0
2023-03-17T06:41:54.029Z,0
2023-03-17T06:42:26.021Z,0
2023-03-17T06:42:58.058Z,0
2023-03-17T06:43:29.949Z,0
2023-03-17T06:44:02.508Z,0
2023-03-17T06:44:34.057Z,0
2023-03-17T06:45:06.738Z,0
2023-03-17T06:45:34.388Z,0
2023-03-17T06:45:54.321Z,0
2023-03-17T06:46:26.673Z,0
2023-03-17T06:46:58.024Z,0
2023-03-17T06:47:29.964Z,0
2023-03-17T06:48:02.524Z,0
2023-03-17T06:48:34.118Z,0
2023-03-17T06:49:06.093Z,0
2023-03-17T06:49:35.329Z,0
2023-03-17T06:49:54.027Z,0
2023-03-17T06:50:26.354Z,0
2023-03-17T06:50:58.176Z,0
2023-03-17T06:51:30.006Z,0
2023-03-17T06:52:02.450Z,0
2023-03-17T06:52:34.060Z,0
2023-03-17T06:53:06.038Z,0
2023-03-17T06:53:34.395Z,0
2023-03-17T06:53:54.040Z,0
2023-03-17T06:54:26.090Z,0
2023-03-17T06:54:57.980Z,0
2023-03-17T06:55:30.831Z,0
2023-03-17T06:56:02.870Z,0
2023-03-17T06:56:34.114Z,0